sensor_id;sensor_type;location;lat;lon;timestamp;P1;durP1;ratioP1;P2;durP2;ratioP2
11653;SDS011;5883;48.818;9.114;2023-03-02T00:00:54;29.33;;;17.90;;
11653;SDS011;5883;48.818;9.114;2023-03-02T00:03:21;24.70;;;16.50;;
11653;SDS011;5883;48.818;9.114;2023-03-02T00:05:48;30.03;;;17.03;;
11653;SDS011;5883;48.818;9.114;2023-03-02T00:08:15;28.80;;;17.20;;
11653;SDS011;5883;48.818;9.114;2023-03-02T00:10:41;29.37;;;16.83;;
11653;SDS011;5883;48.818;9.114;2023-03-02T00:13:09;29.97;;;18.30;;
11653;SDS011;5883;48.818;9.114;2023-03-02T00:15:36;25.70;;;15.93;;
11653;SDS011;5883;48.818;9.114;2023-03-02T00:18:02;24.47;;;17.07;;
11653;SDS011;5883;48.818;9.114;2023-03-02T00:20:29;29.20;;;17.07;;
11653;SDS011;5883;48.818;9.114;2023-03-02T00:22:55;29.63;;;17.20;;
11653;SDS011;5883;48.818;9.114;2023-03-02T00:25:22;23.53;;;15.90;;
11653;SDS011;5883;48.818;9.114;2023-03-02T00:27:48;25.67;;;16.93;;
11653;SDS011;5883;48.818;9.114;2023-03-02T00:30:16;31.60;;;17.97;;
11653;SDS011;5883;48.818;9.114;2023-03-02T00:32:43;27.20;;;17.30;;
11653;SDS011;5883;48.818;9.114;2023-03-02T00:35:09;28.20;;;16.43;;
11653;SDS011;5883;48.818;9.114;2023-03-02T00:37:36;28.83;;;16.93;;
11653;SDS011;5883;48.818;9.114;2023-03-02T00:40:03;32.63;;;18.33;;
11653;SDS011;5883;48.818;9.114;2023-03-02T00:42:31;29.20;;;17.47;;
11653;SDS011;5883;48.818;9.114;2023-03-02T00:44:57;32.07;;;18.80;;
11653;SDS011;5883;48.818;9.114;2023-03-02T00:47:27;36.20;;;18.63;;
11653;SDS011;5883;48.818;9.114;2023-03-02T00:49:53;33.57;;;17.83;;
11653;SDS011;5883;48.818;9.114;2023-03-02T00:52:20;29.13;;;18.10;;
11653;SDS011;5883;48.818;9.114;2023-03-02T00:54:46;29.47;;;17.77;;
11653;SDS011;5883;48.818;9.114;2023-03-02T00:57:13;28.20;;;16.73;;
11653;SDS011;5883;48.818;9.114;2023-03-02T00:59:39;31.57;;;17.53;;
11653;SDS011;5883;48.818;9.114;2023-03-02T01:02:06;29.43;;;16.90;;
11653;SDS011;5883;48.818;9.114;2023-03-02T01:04:35;31.73;;;18.10;;
11653;SDS011;5883;48.818;9.114;2023-03-02T01:07:02;27.97;;;17.23;;
11653;SDS011;5883;48.818;9.114;2023-03-02T01:09:29;29.47;;;17.67;;
11653;SDS011;5883;48.818;9.114;2023-03-02T01:11:55;33.50;;;17.83;;
11653;SDS011;5883;48.818;9.114;2023-03-02T01:14:22;32.23;;;18.30;;
11653;SDS011;5883;48.818;9.114;2023-03-02T01:16:49;31.10;;;17.27;;
11653;SDS011;5883;48.818;9.114;2023-03-02T01:19:15;26.87;;;17.27;;
11653;SDS011;5883;48.818;9.114;2023-03-02T01:21:43;27.43;;;17.57;;
11653;SDS011;5883;48.818;9.114;2023-03-02T01:24:10;30.17;;;16.67;;
11653;SDS011;5883;48.818;9.114;2023-03-02T01:26:37;27.67;;;16.53;;
11653;SDS011;5883;48.818;9.114;2023-03-02T01:29:03;29.63;;;17.10;;
11653;SDS011;5883;48.818;9.114;2023-03-02T01:31:30;29.27;;;17.33;;
11653;SDS011;5883;48.818;9.114;2023-03-02T01:33:56;29.37;;;17.47;;
11653;SDS011;5883;48.818;9.114;2023-03-02T01:36:22;33.17;;;16.87;;
11653;SDS011;5883;48.818;9.114;2023-03-02T01:38:50;29.73;;;16.70;;
11653;SDS011;5883;48.818;9.114;2023-03-02T01:41:18;27.13;;;16.13;;
11653;SDS011;5883;48.818;9.114;2023-03-02T01:43:45;28.03;;;17.83;;
11653;SDS011;5883;48.818;9.114;2023-03-02T01:46:12;28.47;;;16.73;;
11653;SDS011;5883;48.818;9.114;2023-03-02T01:48:41;28.40;;;16.40;;
11653;SDS011;5883;48.818;9.114;2023-03-02T01:51:09;33.00;;;17.77;;
11653;SDS011;5883;48.818;9.114;2023-03-02T01:53:40;30.17;;;17.47;;
11653;SDS011;5883;48.818;9.114;2023-03-02T01:56:12;25.93;;;16.67;;
11653;SDS011;5883;48.818;9.114;2023-03-02T01:58:40;28.73;;;17.30;;
11653;SDS011;5883;48.818;9.114;2023-03-02T02:01:07;25.33;;;16.73;;
11653;SDS011;5883;48.818;9.114;2023-03-02T02:03:39;33.17;;;16.93;;
11653;SDS011;5883;48.818;9.114;2023-03-02T02:06:08;29.73;;;16.53;;
11653;SDS011;5883;48.818;9.114;2023-03-02T02:08:36;31.13;;;17.13;;
11653;SDS011;5883;48.818;9.114;2023-03-02T02:11:03;31.10;;;16.53;;
11653;SDS011;5883;48.818;9.114;2023-03-02T02:13:31;30.53;;;17.03;;
11653;SDS011;5883;48.818;9.114;2023-03-02T02:15:58;28.37;;;16.93;;
11653;SDS011;5883;48.818;9.114;2023-03-02T02:18:24;25.57;;;18.03;;
11653;SDS011;5883;48.818;9.114;2023-03-02T02:20:51;30.13;;;17.77;;
11653;SDS011;5883;48.818;9.114;2023-03-02T02:23:26;28.83;;;17.57;;
11653;SDS011;5883;48.818;9.114;2023-03-02T02:26:02;31.73;;;17.57;;
11653;SDS011;5883;48.818;9.114;2023-03-02T02:28:31;27.03;;;16.47;;
11653;SDS011;5883;48.818;9.114;2023-03-02T02:31:02;25.63;;;16.17;;
11653;SDS011;5883;48.818;9.114;2023-03-02T02:33:30;28.97;;;16.10;;
11653;SDS011;5883;48.818;9.114;2023-03-02T02:36:00;27.80;;;16.90;;
11653;SDS011;5883;48.818;9.114;2023-03-02T02:38:27;28.50;;;17.60;;
11653;SDS011;5883;48.818;9.114;2023-03-02T02:40:54;27.80;;;16.70;;
11653;SDS011;5883;48.818;9.114;2023-03-02T02:43:23;30.90;;;16.70;;
11653;SDS011;5883;48.818;9.114;2023-03-02T02:45:50;31.13;;;18.17;;
11653;SDS011;5883;48.818;9.114;2023-03-02T02:48:18;35.03;;;17.47;;
11653;SDS011;5883;48.818;9.114;2023-03-02T02:50:47;26.60;;;16.20;;
11653;SDS011;5883;48.818;9.114;2023-03-02T02:53:15;27.37;;;16.73;;
11653;SDS011;5883;48.818;9.114;2023-03-02T02:55:43;29.77;;;16.57;;
11653;SDS011;5883;48.818;9.114;2023-03-02T02:58:21;33.50;;;17.13;;
11653;SDS011;5883;48.818;9.114;2023-03-02T03:00:50;28.57;;;16.23;;
11653;SDS011;5883;48.818;9.114;2023-03-02T03:03:23;28.77;;;17.30;;
11653;SDS011;5883;48.818;9.114;2023-03-02T03:05:55;28.00;;;17.03;;
11653;SDS011;5883;48.818;9.114;2023-03-02T03:11:06;29.17;;;16.67;;
11653;SDS011;5883;48.818;9.114;2023-03-02T03:13:33;27.33;;;16.43;;
11653;SDS011;5883;48.818;9.114;2023-03-02T03:16:01;28.10;;;17.73;;
11653;SDS011;5883;48.818;9.114;2023-03-02T03:18:27;27.53;;;16.17;;
11653;SDS011;5883;48.818;9.114;2023-03-02T03:20:55;25.40;;;17.37;;
11653;SDS011;5883;48.818;9.114;2023-03-02T03:23:22;28.40;;;17.47;;
11653;SDS011;5883;48.818;9.114;2023-03-02T03:25:48;29.40;;;17.30;;
11653;SDS011;5883;48.818;9.114;2023-03-02T03:28:14;28.43;;;16.80;;
11653;SDS011;5883;48.818;9.114;2023-03-02T03:30:42;30.87;;;17.00;;
11653;SDS011;5883;48.818;9.114;2023-03-02T03:33:09;29.83;;;17.10;;
11653;SDS011;5883;48.818;9.114;2023-03-02T03:35:36;29.57;;;17.70;;
11653;SDS011;5883;48.818;9.114;2023-03-02T03:38:02;29.03;;;17.20;;
11653;SDS011;5883;48.818;9.114;2023-03-02T03:40:29;28.60;;;18.27;;
11653;SDS011;5883;48.818;9.114;2023-03-02T03:42:58;29.50;;;17.57;;
11653;SDS011;5883;48.818;9.114;2023-03-02T03:45:24;28.03;;;17.40;;
11653;SDS011;5883;48.818;9.114;2023-03-02T03:47:51;30.10;;;18.37;;
11653;SDS011;5883;48.818;9.114;2023-03-02T03:50:18;28.83;;;18.00;;
11653;SDS011;5883;48.818;9.114;2023-03-02T03:52:45;30.27;;;17.43;;
11653;SDS011;5883;48.818;9.114;2023-03-02T03:55:12;28.40;;;16.93;;
11653;SDS011;5883;48.818;9.114;2023-03-02T03:57:38;30.07;;;17.63;;
11653;SDS011;5883;48.818;9.114;2023-03-02T04:00:05;30.17;;;17.50;;
11653;SDS011;5883;48.818;9.114;2023-03-02T04:02:33;27.70;;;17.37;;
11653;SDS011;5883;48.818;9.114;2023-03-02T04:04:59;29.93;;;16.60;;
11653;SDS011;5883;48.818;9.114;2023-03-02T04:07:32;30.13;;;17.13;;
11653;SDS011;5883;48.818;9.114;2023-03-02T04:09:58;31.97;;;18.57;;
11653;SDS011;5883;48.818;9.114;2023-03-02T04:12:28;32.03;;;18.50;;
11653;SDS011;5883;48.818;9.114;2023-03-02T04:14:54;29.07;;;18.23;;
11653;SDS011;5883;48.818;9.114;2023-03-02T04:17:21;30.70;;;18.97;;
11653;SDS011;5883;48.818;9.114;2023-03-02T04:19:47;26.37;;;17.43;;
11653;SDS011;5883;48.818;9.114;2023-03-02T04:22:14;30.63;;;18.50;;
11653;SDS011;5883;48.818;9.114;2023-03-02T04:24:42;32.27;;;18.53;;
11653;SDS011;5883;48.818;9.114;2023-03-02T04:27:08;32.17;;;19.40;;
11653;SDS011;5883;48.818;9.114;2023-03-02T04:29:35;30.77;;;18.63;;
11653;SDS011;5883;48.818;9.114;2023-03-02T04:32:02;30.73;;;17.03;;
11653;SDS011;5883;48.818;9.114;2023-03-02T04:34:28;32.33;;;18.23;;
11653;SDS011;5883;48.818;9.114;2023-03-02T04:36:55;32.07;;;18.53;;
11653;SDS011;5883;48.818;9.114;2023-03-02T04:39:21;30.60;;;17.90;;
11653;SDS011;5883;48.818;9.114;2023-03-02T04:41:50;33.17;;;19.23;;
11653;SDS011;5883;48.818;9.114;2023-03-02T04:44:16;35.37;;;19.83;;
11653;SDS011;5883;48.818;9.114;2023-03-02T04:46:43;30.83;;;17.67;;
11653;SDS011;5883;48.818;9.114;2023-03-02T04:49:09;28.80;;;18.13;;
11653;SDS011;5883;48.818;9.114;2023-03-02T04:51:37;30.77;;;18.03;;
11653;SDS011;5883;48.818;9.114;2023-03-02T04:54:04;33.53;;;19.73;;
11653;SDS011;5883;48.818;9.114;2023-03-02T04:56:31;31.43;;;19.10;;
11653;SDS011;5883;48.818;9.114;2023-03-02T04:58:59;30.10;;;18.37;;
11653;SDS011;5883;48.818;9.114;2023-03-02T05:01:26;33.60;;;19.13;;
11653;SDS011;5883;48.818;9.114;2023-03-02T05:03:52;27.67;;;18.00;;
11653;SDS011;5883;48.818;9.114;2023-03-02T05:06:19;34.97;;;19.47;;
11653;SDS011;5883;48.818;9.114;2023-03-02T05:08:46;31.83;;;19.57;;
11653;SDS011;5883;48.818;9.114;2023-03-02T05:11:13;32.53;;;20.43;;
11653;SDS011;5883;48.818;9.114;2023-03-02T05:13:45;31.57;;;18.43;;
11653;SDS011;5883;48.818;9.114;2023-03-02T05:16:13;31.83;;;19.67;;
11653;SDS011;5883;48.818;9.114;2023-03-02T05:18:40;33.40;;;20.07;;
11653;SDS011;5883;48.818;9.114;2023-03-02T05:21:06;33.63;;;20.17;;
11653;SDS011;5883;48.818;9.114;2023-03-02T05:23:32;41.10;;;21.70;;
11653;SDS011;5883;48.818;9.114;2023-03-02T05:25:59;34.80;;;21.37;;
11653;SDS011;5883;48.818;9.114;2023-03-02T05:28:25;34.47;;;20.23;;
11653;SDS011;5883;48.818;9.114;2023-03-02T05:30:52;35.17;;;21.00;;
11653;SDS011;5883;48.818;9.114;2023-03-02T05:33:19;34.83;;;19.57;;
11653;SDS011;5883;48.818;9.114;2023-03-02T05:35:46;33.87;;;20.30;;
11653;SDS011;5883;48.818;9.114;2023-03-02T05:38:13;36.53;;;20.37;;
11653;SDS011;5883;48.818;9.114;2023-03-02T05:40:39;37.13;;;20.20;;
11653;SDS011;5883;48.818;9.114;2023-03-02T05:43:07;36.37;;;21.07;;
11653;SDS011;5883;48.818;9.114;2023-03-02T05:45:35;37.37;;;21.23;;
11653;SDS011;5883;48.818;9.114;2023-03-02T05:48:02;31.93;;;20.37;;
11653;SDS011;5883;48.818;9.114;2023-03-02T05:50:30;37.40;;;20.97;;
11653;SDS011;5883;48.818;9.114;2023-03-02T05:52:57;36.07;;;21.10;;
11653;SDS011;5883;48.818;9.114;2023-03-02T05:55:24;40.53;;;23.63;;
11653;SDS011;5883;48.818;9.114;2023-03-02T05:57:50;41.07;;;24.73;;
11653;SDS011;5883;48.818;9.114;2023-03-02T06:00:17;36.87;;;22.80;;
11653;SDS011;5883;48.818;9.114;2023-03-02T06:02:44;38.60;;;22.30;;
11653;SDS011;5883;48.818;9.114;2023-03-02T06:05:13;33.10;;;21.20;;
11653;SDS011;5883;48.818;9.114;2023-03-02T06:07:41;32.33;;;20.50;;
11653;SDS011;5883;48.818;9.114;2023-03-02T06:10:09;32.27;;;20.37;;
11653;SDS011;5883;48.818;9.114;2023-03-02T06:12:35;32.57;;;20.80;;
11653;SDS011;5883;48.818;9.114;2023-03-02T06:15:02;38.63;;;22.23;;
11653;SDS011;5883;48.818;9.114;2023-03-02T06:17:28;33.40;;;22.03;;
11653;SDS011;5883;48.818;9.114;2023-03-02T06:19:55;32.07;;;20.43;;
11653;SDS011;5883;48.818;9.114;2023-03-02T06:22:21;36.90;;;21.33;;
11653;SDS011;5883;48.818;9.114;2023-03-02T06:24:49;35.97;;;23.07;;
11653;SDS011;5883;48.818;9.114;2023-03-02T06:27:16;40.33;;;23.47;;
11653;SDS011;5883;48.818;9.114;2023-03-02T06:29:42;37.63;;;22.80;;
11653;SDS011;5883;48.818;9.114;2023-03-02T06:32:09;35.07;;;22.13;;
11653;SDS011;5883;48.818;9.114;2023-03-02T06:34:35;34.90;;;22.97;;
11653;SDS011;5883;48.818;9.114;2023-03-02T06:37:02;38.93;;;23.10;;
11653;SDS011;5883;48.818;9.114;2023-03-02T06:39:28;39.23;;;23.30;;
11653;SDS011;5883;48.818;9.114;2023-03-02T06:41:56;39.57;;;24.83;;
11653;SDS011;5883;48.818;9.114;2023-03-02T06:44:23;37.07;;;22.23;;
11653;SDS011;5883;48.818;9.114;2023-03-02T06:46:49;36.70;;;21.03;;
11653;SDS011;5883;48.818;9.114;2023-03-02T06:49:16;40.67;;;23.50;;
11653;SDS011;5883;48.818;9.114;2023-03-02T06:51:42;36.43;;;22.90;;
11653;SDS011;5883;48.818;9.114;2023-03-02T06:54:08;37.67;;;22.30;;
11653;SDS011;5883;48.818;9.114;2023-03-02T06:56:35;37.20;;;22.27;;
11653;SDS011;5883;48.818;9.114;2023-03-02T06:59:03;37.27;;;22.30;;
11653;SDS011;5883;48.818;9.114;2023-03-02T07:01:29;34.37;;;21.37;;
11653;SDS011;5883;48.818;9.114;2023-03-02T07:03:59;41.17;;;23.27;;
11653;SDS011;5883;48.818;9.114;2023-03-02T07:06:25;39.33;;;24.03;;
11653;SDS011;5883;48.818;9.114;2023-03-02T07:08:52;41.17;;;23.17;;
11653;SDS011;5883;48.818;9.114;2023-03-02T07:11:18;40.43;;;22.23;;
11653;SDS011;5883;48.818;9.114;2023-03-02T07:13:45;40.93;;;24.03;;
11653;SDS011;5883;48.818;9.114;2023-03-02T07:16:13;38.53;;;22.40;;
11653;SDS011;5883;48.818;9.114;2023-03-02T07:18:40;39.07;;;21.50;;
11653;SDS011;5883;48.818;9.114;2023-03-02T07:21:07;37.50;;;22.33;;
11653;SDS011;5883;48.818;9.114;2023-03-02T07:23:37;33.73;;;22.07;;
11653;SDS011;5883;48.818;9.114;2023-03-02T07:26:07;41.53;;;24.00;;
11653;SDS011;5883;48.818;9.114;2023-03-02T07:28:40;39.77;;;23.83;;
11653;SDS011;5883;48.818;9.114;2023-03-02T07:31:08;42.57;;;24.00;;
11653;SDS011;5883;48.818;9.114;2023-03-02T07:33:38;37.33;;;24.07;;
11653;SDS011;5883;48.818;9.114;2023-03-02T07:36:06;33.73;;;22.33;;
11653;SDS011;5883;48.818;9.114;2023-03-02T07:38:38;31.87;;;20.23;;
11653;SDS011;5883;48.818;9.114;2023-03-02T07:41:06;38.93;;;21.77;;
11653;SDS011;5883;48.818;9.114;2023-03-02T07:43:33;37.70;;;21.23;;
11653;SDS011;5883;48.818;9.114;2023-03-02T07:46:01;33.80;;;21.17;;
11653;SDS011;5883;48.818;9.114;2023-03-02T07:48:28;30.97;;;19.57;;
11653;SDS011;5883;48.818;9.114;2023-03-02T07:50:57;32.27;;;20.23;;
11653;SDS011;5883;48.818;9.114;2023-03-02T07:53:24;35.87;;;21.73;;
11653;SDS011;5883;48.818;9.114;2023-03-02T07:55:50;30.57;;;19.73;;
11653;SDS011;5883;48.818;9.114;2023-03-02T07:58:17;31.27;;;20.10;;
11653;SDS011;5883;48.818;9.114;2023-03-02T08:00:43;32.57;;;19.60;;
11653;SDS011;5883;48.818;9.114;2023-03-02T08:03:09;33.43;;;20.33;;
11653;SDS011;5883;48.818;9.114;2023-03-02T08:05:36;32.77;;;19.57;;
11653;SDS011;5883;48.818;9.114;2023-03-02T08:08:04;28.67;;;19.17;;
11653;SDS011;5883;48.818;9.114;2023-03-02T08:10:32;29.93;;;19.50;;
11653;SDS011;5883;48.818;9.114;2023-03-02T08:12:58;29.67;;;19.47;;
11653;SDS011;5883;48.818;9.114;2023-03-02T08:15:25;31.93;;;19.63;;
11653;SDS011;5883;48.818;9.114;2023-03-02T08:17:51;35.90;;;20.53;;
11653;SDS011;5883;48.818;9.114;2023-03-02T08:20:18;29.13;;;19.60;;
11653;SDS011;5883;48.818;9.114;2023-03-02T08:22:44;30.98;;;19.42;;
11653;SDS011;5883;48.818;9.114;2023-03-02T08:25:12;32.15;;;17.70;;
11653;SDS011;5883;48.818;9.114;2023-03-02T08:27:38;31.10;;;19.00;;
11653;SDS011;5883;48.818;9.114;2023-03-02T08:30:06;32.47;;;19.88;;
11653;SDS011;5883;48.818;9.114;2023-03-02T08:32:32;29.75;;;19.10;;
11653;SDS011;5883;48.818;9.114;2023-03-02T08:34:59;30.02;;;19.00;;
11653;SDS011;5883;48.818;9.114;2023-03-02T08:37:25;31.92;;;17.88;;
11653;SDS011;5883;48.818;9.114;2023-03-02T08:39:52;30.40;;;19.75;;
11653;SDS011;5883;48.818;9.114;2023-03-02T08:42:20;30.42;;;19.13;;
11653;SDS011;5883;48.818;9.114;2023-03-02T08:44:47;30.35;;;18.73;;
11653;SDS011;5883;48.818;9.114;2023-03-02T08:47:13;32.10;;;19.95;;
11653;SDS011;5883;48.818;9.114;2023-03-02T08:49:40;33.28;;;18.70;;
11653;SDS011;5883;48.818;9.114;2023-03-02T08:52:06;38.47;;;18.98;;
11653;SDS011;5883;48.818;9.114;2023-03-02T08:54:33;31.73;;;18.83;;
11653;SDS011;5883;48.818;9.114;2023-03-02T08:56:59;33.17;;;19.05;;
11653;SDS011;5883;48.818;9.114;2023-03-02T08:59:27;27.73;;;17.15;;
11653;SDS011;5883;48.818;9.114;2023-03-02T09:01:54;29.02;;;18.73;;
11653;SDS011;5883;48.818;9.114;2023-03-02T09:04:20;27.75;;;18.15;;
11653;SDS011;5883;48.818;9.114;2023-03-02T09:06:47;25.73;;;18.52;;
11653;SDS011;5883;48.818;9.114;2023-03-02T09:09:13;31.30;;;18.85;;
11653;SDS011;5883;48.818;9.114;2023-03-02T09:11:40;25.75;;;17.27;;
11653;SDS011;5883;48.818;9.114;2023-03-02T09:14:07;25.38;;;16.75;;
11653;SDS011;5883;48.818;9.114;2023-03-02T09:16:35;28.98;;;17.10;;
11653;SDS011;5883;48.818;9.114;2023-03-02T09:19:02;28.85;;;17.48;;
11653;SDS011;5883;48.818;9.114;2023-03-02T09:21:28;30.10;;;17.17;;
11653;SDS011;5883;48.818;9.114;2023-03-02T09:23:55;26.25;;;17.05;;
11653;SDS011;5883;48.818;9.114;2023-03-02T09:26:22;25.83;;;16.55;;
11653;SDS011;5883;48.818;9.114;2023-03-02T09:28:49;26.52;;;16.58;;
11653;SDS011;5883;48.818;9.114;2023-03-02T09:31:15;28.90;;;16.50;;
11653;SDS011;5883;48.818;9.114;2023-03-02T09:33:43;23.50;;;16.63;;
11653;SDS011;5883;48.818;9.114;2023-03-02T09:36:10;22.75;;;15.38;;
11653;SDS011;5883;48.818;9.114;2023-03-02T09:38:38;25.75;;;16.23;;
11653;SDS011;5883;48.818;9.114;2023-03-02T09:43:49;27.15;;;16.25;;
11653;SDS011;5883;48.818;9.114;2023-03-02T09:46:19;21.15;;;15.52;;
11653;SDS011;5883;48.818;9.114;2023-03-02T09:48:56;25.67;;;17.17;;
11653;SDS011;5883;48.818;9.114;2023-03-02T09:51:30;23.60;;;16.52;;
11653;SDS011;5883;48.818;9.114;2023-03-02T09:53:59;25.73;;;15.50;;
11653;SDS011;5883;48.818;9.114;2023-03-02T09:56:28;25.08;;;16.58;;
11653;SDS011;5883;48.818;9.114;2023-03-02T09:58:57;32.20;;;17.25;;
11653;SDS011;5883;48.818;9.114;2023-03-02T10:04:14;29.55;;;16.73;;
11653;SDS011;5883;48.818;9.114;2023-03-02T10:06:42;25.60;;;15.95;;
11653;SDS011;5883;48.818;9.114;2023-03-02T10:09:09;20.70;;;14.30;;
11653;SDS011;5883;48.818;9.114;2023-03-02T10:11:38;22.92;;;14.75;;
11653;SDS011;5883;48.818;9.114;2023-03-02T10:14:11;24.55;;;15.43;;
11653;SDS011;5883;48.818;9.114;2023-03-02T10:16:41;21.73;;;14.63;;
11653;SDS011;5883;48.818;9.114;2023-03-02T10:19:15;25.70;;;16.13;;
11653;SDS011;5883;48.818;9.114;2023-03-02T10:21:44;31.48;;;16.70;;
11653;SDS011;5883;48.818;9.114;2023-03-02T10:24:14;25.67;;;16.27;;
11653;SDS011;5883;48.818;9.114;2023-03-02T10:26:41;26.38;;;14.95;;
11653;SDS011;5883;48.818;9.114;2023-03-02T10:29:21;21.40;;;15.68;;
11653;SDS011;5883;48.818;9.114;2023-03-02T10:31:49;23.80;;;15.45;;
11653;SDS011;5883;48.818;9.114;2023-03-02T10:34:21;24.65;;;15.65;;
11653;SDS011;5883;48.818;9.114;2023-03-02T10:36:49;25.15;;;16.30;;
11653;SDS011;5883;48.818;9.114;2023-03-02T10:39:16;25.10;;;16.25;;
11653;SDS011;5883;48.818;9.114;2023-03-02T10:41:43;25.17;;;15.30;;
11653;SDS011;5883;48.818;9.114;2023-03-02T10:44:14;23.75;;;16.42;;
11653;SDS011;5883;48.818;9.114;2023-03-02T10:46:42;23.75;;;15.15;;
11653;SDS011;5883;48.818;9.114;2023-03-02T10:52:01;25.73;;;15.70;;
11653;SDS011;5883;48.818;9.114;2023-03-02T10:54:28;24.80;;;15.90;;
11653;SDS011;5883;48.818;9.114;2023-03-02T10:56:55;22.67;;;13.95;;
11653;SDS011;5883;48.818;9.114;2023-03-02T10:59:39;23.02;;;15.15;;
11653;SDS011;5883;48.818;9.114;2023-03-02T11:02:15;22.98;;;15.60;;
11653;SDS011;5883;48.818;9.114;2023-03-02T11:04:41;26.42;;;15.82;;
11653;SDS011;5883;48.818;9.114;2023-03-02T11:07:09;23.52;;;15.40;;
11653;SDS011;5883;48.818;9.114;2023-03-02T11:09:37;21.88;;;14.85;;
11653;SDS011;5883;48.818;9.114;2023-03-02T11:12:03;23.45;;;14.82;;
11653;SDS011;5883;48.818;9.114;2023-03-02T11:14:30;22.48;;;14.48;;
11653;SDS011;5883;48.818;9.114;2023-03-02T11:17:19;20.60;;;13.32;;
11653;SDS011;5883;48.818;9.114;2023-03-02T11:19:50;21.02;;;13.70;;
11653;SDS011;5883;48.818;9.114;2023-03-02T11:22:20;21.65;;;14.52;;
11653;SDS011;5883;48.818;9.114;2023-03-02T11:24:51;23.70;;;14.18;;
11653;SDS011;5883;48.818;9.114;2023-03-02T11:27:20;22.85;;;14.32;;
11653;SDS011;5883;48.818;9.114;2023-03-02T11:29:49;23.35;;;15.52;;
11653;SDS011;5883;48.818;9.114;2023-03-02T11:32:19;22.00;;;14.32;;
11653;SDS011;5883;48.818;9.114;2023-03-02T11:34:47;19.88;;;14.38;;
11653;SDS011;5883;48.818;9.114;2023-03-02T11:37:15;24.17;;;14.45;;
11653;SDS011;5883;48.818;9.114;2023-03-02T11:39:51;20.05;;;13.43;;
11653;SDS011;5883;48.818;9.114;2023-03-02T11:42:22;20.08;;;13.18;;
11653;SDS011;5883;48.818;9.114;2023-03-02T11:44:50;20.73;;;13.65;;
11653;SDS011;5883;48.818;9.114;2023-03-02T11:47:16;24.35;;;14.18;;
11653;SDS011;5883;48.818;9.114;2023-03-02T11:49:45;19.67;;;13.73;;
11653;SDS011;5883;48.818;9.114;2023-03-02T11:52:14;19.08;;;13.55;;
11653;SDS011;5883;48.818;9.114;2023-03-02T11:54:42;20.95;;;13.93;;
11653;SDS011;5883;48.818;9.114;2023-03-02T11:57:15;26.20;;;15.45;;
11653;SDS011;5883;48.818;9.114;2023-03-02T11:59:43;24.77;;;13.40;;
11653;SDS011;5883;48.818;9.114;2023-03-02T12:02:09;26.42;;;14.02;;
11653;SDS011;5883;48.818;9.114;2023-03-02T12:04:37;20.05;;;13.98;;
11653;SDS011;5883;48.818;9.114;2023-03-02T12:07:15;19.42;;;14.27;;
11653;SDS011;5883;48.818;9.114;2023-03-02T12:09:41;22.38;;;13.85;;
11653;SDS011;5883;48.818;9.114;2023-03-02T12:12:22;19.75;;;13.63;;
11653;SDS011;5883;48.818;9.114;2023-03-02T12:14:54;26.67;;;14.52;;
11653;SDS011;5883;48.818;9.114;2023-03-02T12:17:21;24.17;;;14.00;;
11653;SDS011;5883;48.818;9.114;2023-03-02T12:20:05;22.00;;;13.85;;
11653;SDS011;5883;48.818;9.114;2023-03-02T12:22:33;21.83;;;14.52;;
11653;SDS011;5883;48.818;9.114;2023-03-02T12:25:01;25.90;;;14.70;;
11653;SDS011;5883;48.818;9.114;2023-03-02T12:27:36;18.80;;;13.77;;
11653;SDS011;5883;48.818;9.114;2023-03-02T12:33:04;19.63;;;14.13;;
11653;SDS011;5883;48.818;9.114;2023-03-02T12:35:40;20.60;;;13.63;;
11653;SDS011;5883;48.818;9.114;2023-03-02T12:38:21;19.10;;;13.63;;
11653;SDS011;5883;48.818;9.114;2023-03-02T12:40:52;19.40;;;13.48;;
11653;SDS011;5883;48.818;9.114;2023-03-02T12:43:35;24.23;;;14.23;;
11653;SDS011;5883;48.818;9.114;2023-03-02T12:46:07;22.15;;;12.98;;
11653;SDS011;5883;48.818;9.114;2023-03-02T12:48:39;19.00;;;12.45;;
11653;SDS011;5883;48.818;9.114;2023-03-02T12:51:11;21.70;;;14.05;;
11653;SDS011;5883;48.818;9.114;2023-03-02T12:53:39;20.85;;;13.75;;
11653;SDS011;5883;48.818;9.114;2023-03-02T12:56:06;22.25;;;13.43;;
11653;SDS011;5883;48.818;9.114;2023-03-02T12:58:34;23.90;;;13.57;;
11653;SDS011;5883;48.818;9.114;2023-03-02T13:01:01;21.75;;;12.88;;
11653;SDS011;5883;48.818;9.114;2023-03-02T13:03:28;19.55;;;13.60;;
11653;SDS011;5883;48.818;9.114;2023-03-02T13:05:59;20.60;;;12.95;;
11653;SDS011;5883;48.818;9.114;2023-03-02T13:08:26;20.25;;;13.07;;
11653;SDS011;5883;48.818;9.114;2023-03-02T13:10:53;21.92;;;13.10;;
11653;SDS011;5883;48.818;9.114;2023-03-02T13:13:20;21.50;;;13.27;;
11653;SDS011;5883;48.818;9.114;2023-03-02T13:15:50;18.25;;;13.20;;
11653;SDS011;5883;48.818;9.114;2023-03-02T13:18:17;16.80;;;12.35;;
11653;SDS011;5883;48.818;9.114;2023-03-02T13:20:45;21.30;;;13.35;;
11653;SDS011;5883;48.818;9.114;2023-03-02T13:23:12;21.30;;;14.18;;
11653;SDS011;5883;48.818;9.114;2023-03-02T13:25:46;20.85;;;13.23;;
11653;SDS011;5883;48.818;9.114;2023-03-02T13:28:21;19.60;;;12.95;;
11653;SDS011;5883;48.818;9.114;2023-03-02T13:30:55;22.77;;;12.35;;
11653;SDS011;5883;48.818;9.114;2023-03-02T13:33:23;26.15;;;13.65;;
11653;SDS011;5883;48.818;9.114;2023-03-02T13:35:50;20.17;;;13.10;;
11653;SDS011;5883;48.818;9.114;2023-03-02T13:38:17;18.17;;;12.60;;
11653;SDS011;5883;48.818;9.114;2023-03-02T13:40:44;28.20;;;14.02;;
11653;SDS011;5883;48.818;9.114;2023-03-02T13:43:22;19.55;;;13.07;;
11653;SDS011;5883;48.818;9.114;2023-03-02T13:45:49;19.30;;;13.02;;
11653;SDS011;5883;48.818;9.114;2023-03-02T13:48:17;20.42;;;13.07;;
11653;SDS011;5883;48.818;9.114;2023-03-02T13:50:49;18.13;;;12.43;;
11653;SDS011;5883;48.818;9.114;2023-03-02T13:53:16;19.35;;;12.65;;
11653;SDS011;5883;48.818;9.114;2023-03-02T13:55:43;21.70;;;12.88;;
11653;SDS011;5883;48.818;9.114;2023-03-02T13:58:10;19.65;;;12.88;;
11653;SDS011;5883;48.818;9.114;2023-03-02T14:00:39;22.33;;;13.07;;
11653;SDS011;5883;48.818;9.114;2023-03-02T14:03:09;22.15;;;12.70;;
11653;SDS011;5883;48.818;9.114;2023-03-02T14:05:37;25.73;;;13.38;;
11653;SDS011;5883;48.818;9.114;2023-03-02T14:08:03;18.63;;;12.82;;
11653;SDS011;5883;48.818;9.114;2023-03-02T14:10:31;20.45;;;12.70;;
11653;SDS011;5883;48.818;9.114;2023-03-02T14:12:59;22.42;;;12.93;;
11653;SDS011;5883;48.818;9.114;2023-03-02T14:15:29;18.40;;;11.93;;
11653;SDS011;5883;48.818;9.114;2023-03-02T14:17:55;19.15;;;12.35;;
11653;SDS011;5883;48.818;9.114;2023-03-02T14:20:22;18.75;;;12.30;;
11653;SDS011;5883;48.818;9.114;2023-03-02T14:22:50;19.33;;;13.02;;
11653;SDS011;5883;48.818;9.114;2023-03-02T14:25:16;19.58;;;11.98;;
11653;SDS011;5883;48.818;9.114;2023-03-02T14:27:43;25.55;;;12.82;;
11653;SDS011;5883;48.818;9.114;2023-03-02T14:30:11;18.80;;;12.50;;
11653;SDS011;5883;48.818;9.114;2023-03-02T14:32:39;26.25;;;13.65;;
11653;SDS011;5883;48.818;9.114;2023-03-02T14:35:07;18.15;;;12.18;;
11653;SDS011;5883;48.818;9.114;2023-03-02T14:37:35;18.65;;;12.82;;
11653;SDS011;5883;48.818;9.114;2023-03-02T14:40:04;17.92;;;12.38;;
11653;SDS011;5883;48.818;9.114;2023-03-02T14:42:31;17.85;;;12.82;;
11653;SDS011;5883;48.818;9.114;2023-03-02T14:44:58;27.10;;;14.00;;
11653;SDS011;5883;48.818;9.114;2023-03-02T14:47:24;18.85;;;12.48;;
11653;SDS011;5883;48.818;9.114;2023-03-02T14:49:50;17.67;;;12.32;;
11653;SDS011;5883;48.818;9.114;2023-03-02T14:52:18;16.20;;;12.73;;